Search for airport 
image banner adimage banner ad
image banner ad

LEBENI - Benicolet-Aeroclub Balica

Located in , Spain

ICAO - , IATA -

Data provided by Airmate  

General information

Coordinates: N38°55'7" W0°21'16"
Elevation is 807 feet MSL.
 
View others Airports in Valencia

Operational data

Open for public use
Current time UTC:
Current local time:
Weather at : LEVC - Valencia/Manises ( 64 km )
METAR: LEVC 230800Z 25011KT 220V280 9999 FEW045 12/03 Q1015 NOSIG
TAF: TAF LEVC 230500Z 2306/2406 27015KT 9999 FEW030 TX17/2313Z TN06/2306Z TEMPO 2309/2316 29020G40KT
View NOTAMs / SUP AIP / TFR affecting this airport [VIEW]
Communications frequencies: [VIEW]

Runways:

RWY identifierQFULength (ft)Width (ft)SurfaceLDA (ft)
098200GRAS
278200GRAS

Airport contact information

Address: Spain

Other aviation service providers

Aviation club (not for profit)

Aeroclub Balica

Aeroclub Balica
info@aeroclub-balica.com+34617526690
+34617526690

Satellite view of LEBENI